SWR455 LSZH-EDDV
Flight info
| Callsign | SWR455 |
|---|---|
| Flight time | 1h 1m |
| Altitude | 34000 |
| Route | DEGES Z1 ETAGO DCT HAREM/N0440F330 DCT LOHRE DCT MASEK/N0441F340 Z99 ELNAT P605 WERRA WERRA2R |
| Aircraft | A321/M-SDE3FGHIRWY/LB1 |
Departure
| Time | 2026-04-30 13:10 |
|---|---|
| Airport | Zürich Airport (LSZH) |
Arrival
| Time | 2026-04-30 14:11 |
|---|---|
| Airport | Hannover Airport (EDDV) |
| Time | Latitude | Longitude | Altitude | Speed | Heading |
|---|---|---|---|---|---|
| 2026-04-30 12:35 | 47.45347 | 8.55648 | 1406 ft | 0 kts | 6° |
| 2026-04-30 12:37 | 47.45345 | 8.55702 | 1405 ft | 0 kts | 6° |
| 2026-04-30 12:59 | 47.45345 | 8.55701 | 1397 ft | 1 kts | 6° |
| 2026-04-30 12:59 | 47.45322 | 8.55700 | 1400 ft | 4 kts | 356° |
| 2026-04-30 12:59 | 47.45296 | 8.55706 | 1408 ft | 4 kts | 338° |
| 2026-04-30 13:00 | 47.45274 | 8.55726 | 1407 ft | 4 kts | 310° |
| 2026-04-30 13:00 | 47.45263 | 8.55756 | 1405 ft | 2 kts | 276° |
| 2026-04-30 13:00 | 47.45263 | 8.55758 | 1405 ft | 0 kts | 276° |
| 2026-04-30 13:05 | 47.45263 | 8.55747 | 1406 ft | 4 kts | 275° |
| 2026-04-30 13:05 | 47.45270 | 8.55650 | 1397 ft | 13 kts | 276° |
| 2026-04-30 13:06 | 47.45328 | 8.55424 | 1402 ft | 10 kts | 299° |
| 2026-04-30 13:06 | 47.45368 | 8.55318 | 1400 ft | 14 kts | 299° |
| 2026-04-30 13:06 | 47.45406 | 8.55183 | 1404 ft | 14 kts | 291° |
| 2026-04-30 13:06 | 47.45442 | 8.55034 | 1400 ft | 16 kts | 288° |
| 2026-04-30 13:07 | 47.45479 | 8.54882 | 1405 ft | 16 kts | 289° |
| 2026-04-30 13:07 | 47.45511 | 8.54735 | 1400 ft | 15 kts | 288° |
| 2026-04-30 13:07 | 47.45543 | 8.54596 | 1397 ft | 15 kts | 289° |
| 2026-04-30 13:07 | 47.45575 | 8.54459 | 1402 ft | 14 kts | 292° |
| 2026-04-30 13:08 | 47.45606 | 8.54320 | 1406 ft | 15 kts | 289° |
| 2026-04-30 13:08 | 47.45642 | 8.54154 | 1402 ft | 21 kts | 288° |
| 2026-04-30 13:08 | 47.45693 | 8.53919 | 1405 ft | 25 kts | 290° |
| 2026-04-30 13:08 | 47.45765 | 8.53760 | 1404 ft | 17 kts | 339° |
| 2026-04-30 13:09 | 47.45873 | 8.53797 | 1402 ft | 17 kts | 50° |
| 2026-04-30 13:09 | 47.45868 | 8.54121 | 1406 ft | 62 kts | 96° |
| 2026-04-30 13:09 | 47.45798 | 8.55084 | 1400 ft | 123 kts | 96° |
| 2026-04-30 13:09 | 47.45690 | 8.56559 | 1561 ft | 155 kts | 92° |
| 2026-04-30 13:10 | 47.45559 | 8.58148 | 2259 ft | 155 kts | 90° |
| 2026-04-30 13:10 | 47.45449 | 8.59721 | 2978 ft | 153 kts | 92° |
| 2026-04-30 13:10 | 47.45339 | 8.61345 | 3414 ft | 168 kts | 91° |
| 2026-04-30 13:10 | 47.45220 | 8.63174 | 3670 ft | 189 kts | 90° |
| 2026-04-30 13:11 | 47.45283 | 8.65193 | 3913 ft | 209 kts | 82° |
| 2026-04-30 13:11 | 47.45487 | 8.67310 | 4343 ft | 213 kts | 80° |
| 2026-04-30 13:11 | 47.45739 | 8.69587 | 4628 ft | 229 kts | 81° |
| 2026-04-30 13:11 | 47.46009 | 8.72006 | 5065 ft | 247 kts | 81° |
| 2026-04-30 13:12 | 47.46285 | 8.74556 | 5717 ft | 256 kts | 82° |
| 2026-04-30 13:12 | 47.46490 | 8.77212 | 6406 ft | 264 kts | 92° |
| 2026-04-30 13:12 | 47.46233 | 8.79932 | 7077 ft | 271 kts | 100° |
| 2026-04-30 13:13 | 47.45562 | 8.85501 | 8557 ft | 278 kts | 100° |
| 2026-04-30 13:13 | 47.45211 | 8.88311 | 9325 ft | 280 kts | 101° |
| 2026-04-30 13:13 | 47.44497 | 8.94051 | 10547 ft | 297 kts | 99° |
| 2026-04-30 13:14 | 47.44112 | 8.97174 | 10690 ft | 320 kts | 99° |
| 2026-04-30 13:14 | 47.43703 | 9.00477 | 11046 ft | 332 kts | 99° |
| 2026-04-30 13:14 | 47.42870 | 9.07197 | 12324 ft | 339 kts | 98° |
| 2026-04-30 13:15 | 47.42438 | 9.10682 | 12978 ft | 342 kts | 99° |
| 2026-04-30 13:15 | 47.41791 | 9.17610 | 14258 ft | 345 kts | 87° |
| 2026-04-30 13:15 | 47.42104 | 9.21179 | 14786 ft | 348 kts | 74° |
| 2026-04-30 13:16 | 47.42927 | 9.24476 | 15351 ft | 348 kts | 62° |
| 2026-04-30 13:16 | 47.44122 | 9.27590 | 15949 ft | 350 kts | 59° |
| 2026-04-30 13:16 | 47.45345 | 9.30730 | 16494 ft | 353 kts | 59° |
| 2026-04-30 13:17 | 47.47870 | 9.36837 | 17569 ft | 358 kts | 51° |
| 2026-04-30 13:17 | 47.49626 | 9.39470 | 18125 ft | 360 kts | 39° |
| 2026-04-30 13:17 | 47.54053 | 9.42838 | 19069 ft | 367 kts | 20° |
| 2026-04-30 13:18 | 47.56473 | 9.44031 | 19533 ft | 369 kts | 20° |
| 2026-04-30 13:18 | 47.61569 | 9.45295 | 20373 ft | 376 kts | 4° |
| 2026-04-30 13:18 | 47.64181 | 9.45418 | 20800 ft | 377 kts | 4° |
| 2026-04-30 13:19 | 47.66816 | 9.45555 | 21212 ft | 379 kts | 5° |
| 2026-04-30 13:19 | 47.69446 | 9.45700 | 21629 ft | 380 kts | 5° |
| 2026-04-30 13:19 | 47.72092 | 9.45848 | 22042 ft | 382 kts | 5° |
| 2026-04-30 13:19 | 47.74754 | 9.45996 | 22436 ft | 385 kts | 4° |
| 2026-04-30 13:20 | 47.77435 | 9.46143 | 22846 ft | 386 kts | 5° |
| 2026-04-30 13:20 | 47.80125 | 9.46289 | 23252 ft | 388 kts | 4° |
| 2026-04-30 13:20 | 47.82831 | 9.46371 | 23678 ft | 391 kts | 3° |
| 2026-04-30 13:20 | 47.85571 | 9.46377 | 24020 ft | 393 kts | 2° |
| 2026-04-30 13:21 | 47.88275 | 9.46393 | 24338 ft | 396 kts | 2° |
| 2026-04-30 13:21 | 47.91008 | 9.46379 | 24686 ft | 398 kts | 2° |
| 2026-04-30 13:21 | 47.93815 | 9.46332 | 25055 ft | 400 kts | 2° |
| 2026-04-30 13:22 | 47.99401 | 9.46234 | 25750 ft | 403 kts | 2° |
| 2026-04-30 13:22 | 48.02211 | 9.46208 | 26104 ft | 405 kts | 3° |
| 2026-04-30 13:22 | 48.07871 | 9.46203 | 26792 ft | 408 kts | 3° |
| 2026-04-30 13:23 | 48.10377 | 9.46205 | 27091 ft | 409 kts | 3° |
| 2026-04-30 13:23 | 48.16049 | 9.46194 | 27743 ft | 413 kts | 3° |
| 2026-04-30 13:24 | 48.21747 | 9.46183 | 28367 ft | 416 kts | 4° |
| 2026-04-30 13:24 | 48.27258 | 9.46188 | 28955 ft | 420 kts | 4° |
| 2026-04-30 13:25 | 48.32742 | 9.46205 | 29425 ft | 425 kts | 4° |
| 2026-04-30 13:25 | 48.38688 | 9.46226 | 29992 ft | 429 kts | 4° |
| 2026-04-30 13:26 | 48.47681 | 9.46227 | 30707 ft | 433 kts | 4° |
| 2026-04-30 13:26 | 48.53733 | 9.46219 | 31163 ft | 435 kts | 4° |
| 2026-04-30 13:27 | 48.59755 | 9.46165 | 31751 ft | 432 kts | 3° |
| 2026-04-30 13:28 | 48.67902 | 9.46052 | 32567 ft | 429 kts | 3° |
| 2026-04-30 13:28 | 48.72844 | 9.45989 | 33085 ft | 426 kts | 3° |
| 2026-04-30 13:29 | 48.75395 | 9.46003 | 32424 ft | 439 kts | 4° |
| 2026-04-30 13:29 | 48.80776 | 9.45785 | 32887 ft | 428 kts | 1° |
| 2026-04-30 13:30 | 48.89692 | 9.45145 | 33314 ft | 426 kts | 1° |
| 2026-04-30 13:31 | 48.95453 | 9.44819 | 33322 ft | 425 kts | 2° |
| 2026-04-30 13:32 | 49.06820 | 9.44283 | 33338 ft | 423 kts | 2° |
| 2026-04-30 13:33 | 49.16080 | 9.43805 | 33336 ft | 425 kts | 2° |
| 2026-04-30 13:34 | 49.23543 | 9.43413 | 33299 ft | 425 kts | 2° |
| 2026-04-30 13:35 | 49.34581 | 9.42849 | 33336 ft | 425 kts | 2° |
| 2026-04-30 13:36 | 49.46369 | 9.42251 | 33346 ft | 425 kts | 2° |
| 2026-04-30 13:36 | 49.55287 | 9.41789 | 33347 ft | 429 kts | 2° |
| 2026-04-30 13:37 | 49.64220 | 9.41809 | 33363 ft | 424 kts | 9° |
| 2026-04-30 13:38 | 49.72996 | 9.43219 | 33360 ft | 425 kts | 9° |
| 2026-04-30 13:39 | 49.84755 | 9.45100 | 33368 ft | 424 kts | 9° |
| 2026-04-30 13:40 | 49.93556 | 9.46524 | 33370 ft | 424 kts | 9° |
| 2026-04-30 13:40 | 49.99410 | 9.47463 | 33378 ft | 424 kts | 9° |
| 2026-04-30 13:41 | 50.05295 | 9.48409 | 33374 ft | 424 kts | 9° |
| 2026-04-30 13:41 | 50.11169 | 9.49367 | 33377 ft | 423 kts | 9° |
| 2026-04-30 13:42 | 50.17010 | 9.50349 | 33390 ft | 423 kts | 9° |
| 2026-04-30 13:42 | 50.25768 | 9.51831 | 33378 ft | 423 kts | 9° |
| 2026-04-30 13:43 | 50.31654 | 9.52826 | 33386 ft | 422 kts | 9° |
| 2026-04-30 13:43 | 50.37475 | 9.53808 | 33381 ft | 422 kts | 9° |
| 2026-04-30 13:44 | 50.43309 | 9.54792 | 33383 ft | 422 kts | 9° |
| 2026-04-30 13:44 | 50.49158 | 9.55770 | 33381 ft | 422 kts | 9° |
| 2026-04-30 13:45 | 50.57899 | 9.57250 | 33401 ft | 423 kts | 9° |
| 2026-04-30 13:46 | 50.63747 | 9.58256 | 33397 ft | 422 kts | 9° |
| 2026-04-30 13:46 | 50.69602 | 9.59267 | 33405 ft | 423 kts | 9° |
| 2026-04-30 13:47 | 50.75444 | 9.60284 | 33414 ft | 423 kts | 10° |
| 2026-04-30 13:47 | 50.81298 | 9.61412 | 33412 ft | 422 kts | 10° |
| 2026-04-30 13:48 | 50.87119 | 9.62571 | 33412 ft | 422 kts | 10° |
| 2026-04-30 13:48 | 50.92915 | 9.63714 | 33407 ft | 422 kts | 10° |
| 2026-04-30 13:49 | 50.98752 | 9.64846 | 33398 ft | 418 kts | 10° |
| 2026-04-30 13:49 | 51.01604 | 9.65393 | 32919 ft | 412 kts | 10° |
| 2026-04-30 13:49 | 51.04434 | 9.65941 | 32075 ft | 406 kts | 10° |
| 2026-04-30 13:49 | 51.07212 | 9.66483 | 31265 ft | 401 kts | 11° |
| 2026-04-30 13:50 | 51.09965 | 9.67020 | 30444 ft | 396 kts | 11° |
| 2026-04-30 13:50 | 51.12474 | 9.67513 | 29567 ft | 391 kts | 11° |
| 2026-04-30 13:50 | 51.12575 | 9.67533 | 29557 ft | 391 kts | 11° |
| 2026-04-30 13:51 | 51.14620 | 9.67950 | 28430 ft | 384 kts | 11° |
| 2026-04-30 13:51 | 51.17253 | 9.68504 | 27560 ft | 382 kts | 11° |
| 2026-04-30 13:51 | 51.19873 | 9.69026 | 26978 ft | 379 kts | 10° |
| 2026-04-30 13:51 | 51.22458 | 9.69507 | 26411 ft | 375 kts | 9° |
| 2026-04-30 13:52 | 51.25067 | 9.69935 | 25801 ft | 372 kts | 9° |
| 2026-04-30 13:52 | 51.27612 | 9.70322 | 25391 ft | 370 kts | 9° |
| 2026-04-30 13:52 | 51.30161 | 9.70705 | 24618 ft | 367 kts | 9° |
| 2026-04-30 13:52 | 51.32704 | 9.71092 | 24046 ft | 365 kts | 9° |
| 2026-04-30 13:53 | 51.35216 | 9.71484 | 23391 ft | 362 kts | 9° |
| 2026-04-30 13:53 | 51.37726 | 9.71885 | 22778 ft | 359 kts | 9° |
| 2026-04-30 13:53 | 51.40195 | 9.72286 | 22197 ft | 356 kts | 9° |
| 2026-04-30 13:53 | 51.42659 | 9.72685 | 21621 ft | 353 kts | 9° |
| 2026-04-30 13:54 | 51.45079 | 9.72764 | 21088 ft | 354 kts | 359° |
| 2026-04-30 13:54 | 51.47538 | 9.72017 | 20524 ft | 357 kts | 347° |
| 2026-04-30 13:54 | 51.49815 | 9.70491 | 20002 ft | 361 kts | 336° |
| 2026-04-30 13:54 | 51.51954 | 9.68369 | 19483 ft | 361 kts | 332° |
| 2026-04-30 13:55 | 51.54073 | 9.66212 | 18987 ft | 359 kts | 332° |
| 2026-04-30 13:55 | 51.56176 | 9.64075 | 18429 ft | 358 kts | 332° |
| 2026-04-30 13:55 | 51.58278 | 9.61937 | 17869 ft | 356 kts | 332° |
| 2026-04-30 13:55 | 51.60367 | 9.59807 | 17320 ft | 353 kts | 332° |
| 2026-04-30 13:56 | 51.62435 | 9.57692 | 16793 ft | 351 kts | 332° |
| 2026-04-30 13:56 | 51.63752 | 9.56341 | 16458 ft | 350 kts | 332° |
| 2026-04-30 13:56 | 51.65832 | 9.54205 | 15940 ft | 348 kts | 332° |
| 2026-04-30 13:56 | 51.67843 | 9.52192 | 15449 ft | 344 kts | 336° |
| 2026-04-30 13:57 | 51.70022 | 9.50677 | 14977 ft | 337 kts | 347° |
| 2026-04-30 13:57 | 51.72248 | 9.49684 | 14498 ft | 333 kts | 349° |
| 2026-04-30 13:57 | 51.74494 | 9.48705 | 13999 ft | 332 kts | 349° |
| 2026-04-30 13:57 | 51.76718 | 9.47731 | 13462 ft | 330 kts | 349° |
| 2026-04-30 13:58 | 51.78921 | 9.46762 | 12958 ft | 328 kts | 349° |
| 2026-04-30 13:58 | 51.83288 | 9.44818 | 11991 ft | 323 kts | 349° |
| 2026-04-30 13:58 | 51.85451 | 9.43855 | 11492 ft | 321 kts | 349° |
| 2026-04-30 13:59 | 51.87599 | 9.42901 | 11029 ft | 319 kts | 349° |
| 2026-04-30 13:59 | 51.89742 | 9.41953 | 10553 ft | 317 kts | 349° |
| 2026-04-30 13:59 | 51.91848 | 9.41023 | 10296 ft | 308 kts | 350° |
| 2026-04-30 13:59 | 51.93838 | 9.40139 | 10138 ft | 295 kts | 350° |
| 2026-04-30 14:00 | 51.95786 | 9.39274 | 9818 ft | 289 kts | 350° |
| 2026-04-30 14:00 | 51.99640 | 9.37566 | 8981 ft | 286 kts | 350° |
| 2026-04-30 14:00 | 52.01287 | 9.36838 | 8625 ft | 285 kts | 350° |
| 2026-04-30 14:01 | 52.02776 | 9.36178 | 8641 ft | 282 kts | 350° |
| 2026-04-30 14:01 | 52.04597 | 9.35366 | 8444 ft | 284 kts | 350° |
| 2026-04-30 14:01 | 52.06511 | 9.34516 | 8453 ft | 285 kts | 350° |
| 2026-04-30 14:02 | 52.08422 | 9.33667 | 8457 ft | 285 kts | 350° |
| 2026-04-30 14:02 | 52.10337 | 9.32815 | 8458 ft | 285 kts | 350° |
| 2026-04-30 14:02 | 52.12257 | 9.31957 | 8449 ft | 285 kts | 350° |
| 2026-04-30 14:02 | 52.14165 | 9.31101 | 8449 ft | 285 kts | 350° |
| 2026-04-30 14:03 | 52.16083 | 9.30238 | 8442 ft | 285 kts | 350° |
| 2026-04-30 14:03 | 52.17992 | 9.29378 | 8461 ft | 284 kts | 350° |
| 2026-04-30 14:03 | 52.19901 | 9.28520 | 8460 ft | 284 kts | 350° |
| 2026-04-30 14:03 | 52.21803 | 9.27701 | 8434 ft | 281 kts | 354° |
| 2026-04-30 14:04 | 52.23724 | 9.27453 | 8043 ft | 272 kts | 9° |
| 2026-04-30 14:04 | 52.25537 | 9.27988 | 7584 ft | 265 kts | 22° |
| 2026-04-30 14:04 | 52.27317 | 9.28890 | 7144 ft | 265 kts | 22° |
| 2026-04-30 14:04 | 52.29057 | 9.29745 | 6734 ft | 264 kts | 21° |
| 2026-04-30 14:05 | 52.30814 | 9.30597 | 6289 ft | 264 kts | 21° |
| 2026-04-30 14:05 | 52.32398 | 9.31365 | 5866 ft | 264 kts | 21° |
| 2026-04-30 14:05 | 52.33947 | 9.32119 | 5474 ft | 264 kts | 21° |
| 2026-04-30 14:05 | 52.35637 | 9.32946 | 5035 ft | 264 kts | 21° |
| 2026-04-30 14:06 | 52.37288 | 9.33756 | 4655 ft | 262 kts | 21° |
| 2026-04-30 14:06 | 52.40729 | 9.35436 | 4003 ft | 252 kts | 20° |
| 2026-04-30 14:07 | 52.43949 | 9.37000 | 3738 ft | 234 kts | 20° |
| 2026-04-30 14:07 | 52.45409 | 9.38116 | 3382 ft | 231 kts | 39° |
| 2026-04-30 14:07 | 52.46503 | 9.39888 | 3166 ft | 220 kts | 58° |
| 2026-04-30 14:08 | 52.47366 | 9.44507 | 2687 ft | 214 kts | 94° |
| 2026-04-30 14:08 | 52.47301 | 9.46958 | 2411 ft | 214 kts | 93° |
| 2026-04-30 14:08 | 52.47181 | 9.51712 | 1828 ft | 199 kts | 93° |
| 2026-04-30 14:09 | 52.47123 | 9.53937 | 1580 ft | 188 kts | 92° |
| 2026-04-30 14:09 | 52.47071 | 9.55966 | 1364 ft | 168 kts | 94° |
| 2026-04-30 14:09 | 52.47000 | 9.59443 | 861 ft | 137 kts | 94° |
| 2026-04-30 14:10 | 52.46956 | 9.60987 | 730 ft | 137 kts | 94° |
| 2026-04-30 14:10 | 52.46913 | 9.62535 | 539 ft | 132 kts | 93° |
| 2026-04-30 14:10 | 52.46865 | 9.63995 | 352 ft | 127 kts | 96° |
| 2026-04-30 14:10 | 52.46823 | 9.65441 | 214 ft | 124 kts | 94° |
| 2026-04-30 14:11 | 52.46785 | 9.66717 | 177 ft | 89 kts | 90° |
| 2026-04-30 14:11 | 52.46766 | 9.67421 | 174 ft | 39 kts | 93° |
| 2026-04-30 14:11 | 52.46759 | 9.67657 | 175 ft | 17 kts | 92° |
| 2026-04-30 14:11 | 52.46751 | 9.67843 | 175 ft | 17 kts | 94° |
| 2026-04-30 14:12 | 52.46731 | 9.68016 | 176 ft | 21 kts | 115° |
| 2026-04-30 14:12 | 52.46612 | 9.68203 | 178 ft | 27 kts | 143° |
| 2026-04-30 14:12 | 52.46463 | 9.68388 | 178 ft | 23 kts | 142° |
| 2026-04-30 14:12 | 52.46381 | 9.68492 | 178 ft | 21 kts | 142° |
| 2026-04-30 14:13 | 52.46228 | 9.68683 | 179 ft | 21 kts | 143° |
| 2026-04-30 14:13 | 52.46110 | 9.68824 | 179 ft | 21 kts | 144° |
| 2026-04-30 14:13 | 52.46003 | 9.68966 | 179 ft | 20 kts | 149° |
| 2026-04-30 14:13 | 52.45901 | 9.69087 | 179 ft | 17 kts | 144° |
| 2026-04-30 14:14 | 52.45813 | 9.69198 | 178 ft | 14 kts | 140° |
| 2026-04-30 14:14 | 52.45789 | 9.69243 | 179 ft | 1 kts | 92° |
| 2026-04-30 14:14 | 52.45804 | 9.69257 | 179 ft | 5 kts | 36° |
| 2026-04-30 14:14 | 52.45836 | 9.69307 | 179 ft | 0 kts | 46° |